createdAt,value
2022-11-15T00:01:21.112Z,16.64
2022-11-15T00:03:47.482Z,16.50
2022-11-15T00:06:13.823Z,16.48
2022-11-15T00:08:40.159Z,16.47
2022-11-15T00:11:06.497Z,16.45
2022-11-15T00:13:33.172Z,16.44
2022-11-15T00:15:59.834Z,16.50
2022-11-15T00:18:26.163Z,16.28
2022-11-15T00:20:52.498Z,16.16
2022-11-15T00:23:18.831Z,16.20
2022-11-15T00:25:45.168Z,16.18
2022-11-15T00:28:11.502Z,16.22
2022-11-15T00:30:37.842Z,16.29
2022-11-15T00:33:04.181Z,16.37
2022-11-15T00:35:30.507Z,16.57
2022-11-15T00:37:56.846Z,16.48
2022-11-15T00:40:23.189Z,16.36
2022-11-15T00:42:49.516Z,16.34
2022-11-15T00:45:15.857Z,16.55
2022-11-15T00:47:42.200Z,16.61
2022-11-15T00:50:10.711Z,16.40
2022-11-15T00:52:40.530Z,16.38
2022-11-15T00:55:06.871Z,16.44
2022-11-15T00:57:33.210Z,16.41
2022-11-15T00:59:59.535Z,16.31
2022-11-15T01:02:25.880Z,16.36
2022-11-15T01:04:52.213Z,16.52
2022-11-15T01:07:18.582Z,16.89
2022-11-15T01:09:44.972Z,16.71
2022-11-15T01:12:11.308Z,16.62
2022-11-15T01:14:37.658Z,16.45
2022-11-15T01:17:03.983Z,16.48
2022-11-15T01:19:30.323Z,16.35
2022-11-15T01:21:56.664Z,16.48
2022-11-15T01:24:23.007Z,16.58
2022-11-15T01:26:49.340Z,16.41
2022-11-15T01:29:15.678Z,16.42
2022-11-15T01:31:42.012Z,17.06
2022-11-15T01:34:08.359Z,17.19
2022-11-15T01:36:34.686Z,16.84
2022-11-15T01:39:01.031Z,16.52
2022-11-15T01:41:27.370Z,16.83
2022-11-15T01:43:53.696Z,16.47
2022-11-15T01:46:20.038Z,16.57
2022-11-15T01:48:46.375Z,16.32
2022-11-15T01:51:12.708Z,16.22
2022-11-15T01:53:39.041Z,16.20
2022-11-15T01:56:05.386Z,16.27
2022-11-15T01:58:31.714Z,16.29
2022-11-15T02:00:58.112Z,16.23
2022-11-15T02:03:24.563Z,16.20
2022-11-15T02:05:50.894Z,16.20
2022-11-15T02:08:17.278Z,16.28
2022-11-15T02:10:43.610Z,16.57
2022-11-15T02:13:09.943Z,16.36
2022-11-15T02:15:36.288Z,16.19
2022-11-15T02:18:02.638Z,16.28
2022-11-15T02:20:28.966Z,16.31
2022-11-15T02:22:55.295Z,16.39
2022-11-15T02:25:21.644Z,16.35
2022-11-15T02:27:47.966Z,16.26
2022-11-15T02:30:14.298Z,16.79
2022-11-15T02:32:40.634Z,16.74
2022-11-15T02:35:06.973Z,16.76
2022-11-15T02:37:33.304Z,16.84
2022-11-15T02:39:59.647Z,17.31
2022-11-15T02:42:25.975Z,17.27
2022-11-15T02:44:52.306Z,16.93
2022-11-15T02:47:18.640Z,17.25
2022-11-15T02:49:44.973Z,17.47
2022-11-15T02:52:11.303Z,17.57
2022-11-15T02:54:37.637Z,17.49
2022-11-15T02:57:03.963Z,17.20
2022-11-15T02:59:30.288Z,16.77
2022-11-15T03:01:56.612Z,16.63
2022-11-15T03:04:22.963Z,16.60
2022-11-15T03:06:49.365Z,16.52
2022-11-15T03:09:15.772Z,16.32
2022-11-15T03:11:42.123Z,16.31
2022-11-15T03:14:08.449Z,16.39
2022-11-15T03:16:34.780Z,16.97
2022-11-15T03:19:01.130Z,17.04
2022-11-15T03:21:27.460Z,17.15
2022-11-15T03:23:53.796Z,17.15
2022-11-15T03:26:20.122Z,17.20
2022-11-15T03:28:46.466Z,17.16
2022-11-15T03:31:12.805Z,17.38
2022-11-15T03:33:39.135Z,17.27
2022-11-15T03:36:05.471Z,17.03
2022-11-15T03:38:31.869Z,16.65
2022-11-15T03:40:58.251Z,16.43
2022-11-15T03:43:24.604Z,16.18
2022-11-15T03:45:50.947Z,16.17
2022-11-15T03:48:17.283Z,16.41
2022-11-15T03:50:43.625Z,16.29
2022-11-15T03:53:09.963Z,16.35
2022-11-15T03:55:36.312Z,16.31
2022-11-15T03:58:02.666Z,16.42
2022-11-15T04:00:29.004Z,16.36
2022-11-15T04:02:55.337Z,16.20
2022-11-15T04:05:21.678Z,16.11
2022-11-15T04:07:48.044Z,16.01
2022-11-15T04:10:14.524Z,15.93
2022-11-15T04:12:40.864Z,16.31
2022-11-15T04:15:07.199Z,16.23
2022-11-15T04:17:33.545Z,16.30
2022-11-15T04:19:59.942Z,16.17
2022-11-15T04:22:26.285Z,15.84
2022-11-15T04:24:52.628Z,15.86
2022-11-15T04:27:18.950Z,15.94
2022-11-15T04:29:45.300Z,16.07
2022-11-15T04:32:11.633Z,15.99
2022-11-15T04:34:37.968Z,15.75
2022-11-15T04:37:04.307Z,15.68
2022-11-15T04:39:30.648Z,16.10
2022-11-15T04:41:56.985Z,16.15
2022-11-15T04:44:23.341Z,15.87
2022-11-15T04:46:49.675Z,15.77
2022-11-15T04:49:16.076Z,15.74
2022-11-15T04:51:42.406Z,15.72
2022-11-15T04:54:08.732Z,15.53
2022-11-15T04:56:35.065Z,15.52
2022-11-15T04:59:01.421Z,15.60
2022-11-15T05:01:27.813Z,15.68
2022-11-15T05:03:54.214Z,15.66
2022-11-15T05:06:20.551Z,15.78
2022-11-15T05:08:46.897Z,15.72
2022-11-15T05:11:13.245Z,15.76
2022-11-15T05:13:39.577Z,15.73
2022-11-15T05:16:05.907Z,15.98
2022-11-15T05:18:32.236Z,15.73
2022-11-15T05:20:58.575Z,15.78
2022-11-15T05:23:24.918Z,15.85
2022-11-15T05:25:51.267Z,15.82
2022-11-15T05:28:17.617Z,15.77
2022-11-15T05:30:43.947Z,15.99
2022-11-15T05:33:10.284Z,15.87
2022-11-15T05:35:36.620Z,15.94
2022-11-15T05:38:02.964Z,16.01
2022-11-15T05:40:29.305Z,15.83
2022-11-15T05:42:55.638Z,15.79
2022-11-15T05:45:26.729Z,15.62
2022-11-15T05:47:53.531Z,15.61
2022-11-15T05:50:19.876Z,15.60
2022-11-15T05:52:46.204Z,15.68
2022-11-15T05:55:12.530Z,15.98
2022-11-15T05:57:38.863Z,16.18
2022-11-15T06:00:05.208Z,16.10
2022-11-15T06:02:31.616Z,16.67
2022-11-15T06:04:58.001Z,16.39
2022-11-15T06:07:24.367Z,16.03
2022-11-15T06:09:50.725Z,15.86
2022-11-15T06:12:17.061Z,16.09
2022-11-15T06:14:43.388Z,15.79
2022-11-15T06:17:11.482Z,16.20
2022-11-15T06:19:37.970Z,15.89
2022-11-15T06:22:04.315Z,15.88
2022-11-15T06:24:30.659Z,16.41
2022-11-15T06:26:56.989Z,16.72
2022-11-15T06:29:23.324Z,16.82
2022-11-15T06:31:49.663Z,16.92
2022-11-15T06:34:16.008Z,17.22
2022-11-15T06:36:42.368Z,16.97
2022-11-15T06:39:08.719Z,17.34
2022-11-15T06:41:35.054Z,17.27
2022-11-15T06:44:01.395Z,17.08
2022-11-15T06:46:27.735Z,16.84
2022-11-15T06:48:54.070Z,16.65
2022-11-15T06:51:20.456Z,16.35
2022-11-15T06:53:46.790Z,16.83
2022-11-15T06:56:13.112Z,16.63
2022-11-15T06:58:39.457Z,16.67
2022-11-15T07:01:05.897Z,16.58
2022-11-15T07:03:32.626Z,16.55
2022-11-15T07:06:04.143Z,16.30
2022-11-15T07:08:33.384Z,16.21
2022-11-15T07:10:59.733Z,16.14
2022-11-15T07:13:26.072Z,16.20
2022-11-15T07:15:52.399Z,16.55
2022-11-15T07:18:18.717Z,16.79
2022-11-15T07:20:45.052Z,17.10
2022-11-15T07:23:11.374Z,16.99
2022-11-15T07:25:37.712Z,17.43
2022-11-15T07:28:04.184Z,17.47
2022-11-15T07:30:30.574Z,16.89
2022-11-15T07:32:56.932Z,17.14
2022-11-15T07:35:23.255Z,17.18
2022-11-15T07:37:49.576Z,16.92
2022-11-15T07:40:15.908Z,17.25
2022-11-15T07:42:42.248Z,17.28
2022-11-15T07:45:08.580Z,17.08
2022-11-15T07:47:34.914Z,17.13
2022-11-15T07:50:01.242Z,16.97
2022-11-15T07:52:27.579Z,17.08
2022-11-15T07:54:53.927Z,17.33
2022-11-15T07:57:20.290Z,17.66
2022-11-15T07:59:46.618Z,17.69
2022-11-15T08:02:13.065Z,17.81
2022-11-15T08:04:39.464Z,17.76
2022-11-15T08:07:05.854Z,18.02
2022-11-15T08:09:32.205Z,18.11
2022-11-15T08:11:58.544Z,18.10
2022-11-15T08:14:24.883Z,18.05
2022-11-15T08:16:51.220Z,18.13
2022-11-15T08:19:17.554Z,18.04
2022-11-15T08:21:43.899Z,17.75
2022-11-15T08:24:10.220Z,17.67
2022-11-15T08:26:36.543Z,17.79
2022-11-15T08:29:02.878Z,17.54
2022-11-15T08:31:29.224Z,17.43
2022-11-15T08:33:55.548Z,17.52
2022-11-15T08:36:21.890Z,17.77
2022-11-15T08:38:48.228Z,17.98
2022-11-15T08:41:14.561Z,17.91
2022-11-15T08:43:40.900Z,17.82
2022-11-15T08:46:07.237Z,17.99
2022-11-15T08:48:33.757Z,17.74
2022-11-15T08:51:00.221Z,17.70
2022-11-15T08:53:26.554Z,17.65
2022-11-15T08:55:52.880Z,18.14
2022-11-15T08:58:19.213Z,18.07
2022-11-15T09:00:45.543Z,18.15
2022-11-15T09:03:11.875Z,18.12
2022-11-15T09:05:38.208Z,18.08
2022-11-15T09:08:19.154Z,18.19
2022-11-15T09:10:50.871Z,18.30
2022-11-15T09:13:17.208Z,18.24
2022-11-15T09:15:43.543Z,18.11
2022-11-15T09:18:09.884Z,18.04
2022-11-15T09:20:36.215Z,18.07
2022-11-15T09:23:02.559Z,17.92
2022-11-15T09:25:28.915Z,17.80
2022-11-15T09:27:55.278Z,18.18
2022-11-15T09:30:21.622Z,18.17
2022-11-15T09:32:47.962Z,18.16
2022-11-15T09:35:14.301Z,18.23
2022-11-15T09:37:40.636Z,18.32
2022-11-15T09:40:06.973Z,18.27
2022-11-15T09:42:33.316Z,18.40
2022-11-15T09:44:59.649Z,18.26
2022-11-15T09:47:25.987Z,18.27
2022-11-15T09:49:56.654Z,18.38
2022-11-15T09:52:24.227Z,18.48
2022-11-15T09:54:55.123Z,18.55
2022-11-15T09:57:22.284Z,18.68
2022-11-15T09:59:48.605Z,18.69
2022-11-15T10:02:14.931Z,18.75
2022-11-15T10:04:41.276Z,18.63
2022-11-15T10:07:07.666Z,18.94
2022-11-15T10:09:34.043Z,18.84
2022-11-15T10:12:00.390Z,18.63
2022-11-15T10:14:26.721Z,18.97
2022-11-15T10:16:53.066Z,18.99
2022-11-15T10:19:19.400Z,18.79
2022-11-15T10:21:45.738Z,18.72
2022-11-15T10:24:12.071Z,19.05
2022-11-15T10:26:38.420Z,18.89
2022-11-15T10:29:04.756Z,18.88
2022-11-15T10:31:31.094Z,18.86
2022-11-15T10:33:57.447Z,18.79
2022-11-15T10:36:23.813Z,18.72
2022-11-15T10:38:50.179Z,18.67
2022-11-15T10:41:16.535Z,18.88
2022-11-15T10:43:42.876Z,18.79
2022-11-15T10:46:31.524Z,18.89
2022-11-15T10:48:55.523Z,18.68
2022-11-15T10:51:21.861Z,18.52
2022-11-15T10:53:48.190Z,18.29
2022-11-15T10:56:14.536Z,18.38
2022-11-15T10:58:40.891Z,18.52
2022-11-15T11:01:07.256Z,18.33
2022-11-15T11:03:34.623Z,18.36
2022-11-15T11:06:01.157Z,18.59
2022-11-15T11:08:27.490Z,18.74
2022-11-15T11:10:58.546Z,18.70
2022-11-15T11:13:28.131Z,18.67
2022-11-15T11:15:54.458Z,18.64
2022-11-15T11:18:20.804Z,18.04
2022-11-15T11:20:47.146Z,18.39
2022-11-15T11:23:13.726Z,18.43
2022-11-15T11:25:40.119Z,18.44
2022-11-15T11:28:06.453Z,18.75
2022-11-15T11:30:32.795Z,18.47
2022-11-15T11:32:59.146Z,18.50
2022-11-15T11:35:25.499Z,18.51
2022-11-15T11:37:51.845Z,18.58
2022-11-15T11:40:18.179Z,18.64
2022-11-15T11:42:44.529Z,18.69
2022-11-15T11:45:10.872Z,18.63
2022-11-15T11:47:37.230Z,18.55
2022-11-15T11:50:03.599Z,18.87
2022-11-15T11:52:29.945Z,18.68
2022-11-15T11:54:56.476Z,18.45
2022-11-15T11:57:22.830Z,18.28
2022-11-15T11:59:49.163Z,18.40
2022-11-15T12:02:15.607Z,18.05
2022-11-15T12:04:42.039Z,17.79
2022-11-15T12:07:08.433Z,18.05
2022-11-15T12:09:34.859Z,18.29
2022-11-15T12:12:01.216Z,18.05
2022-11-15T12:14:27.567Z,18.12
2022-11-15T12:16:53.908Z,18.33
2022-11-15T12:19:20.250Z,18.26
2022-11-15T12:21:46.588Z,18.21
2022-11-15T12:24:12.997Z,18.05
2022-11-15T12:26:39.363Z,17.90
2022-11-15T12:29:07.959Z,18.14
2022-11-15T12:31:35.295Z,18.27
2022-11-15T12:34:07.061Z,18.00
2022-11-15T12:36:33.867Z,18.02
2022-11-15T12:39:00.226Z,17.87
2022-11-15T12:41:26.821Z,17.96
2022-11-15T12:43:53.175Z,17.92
2022-11-15T12:46:19.510Z,17.73
2022-11-15T12:48:45.870Z,18.02
2022-11-15T12:51:12.203Z,17.86
2022-11-15T12:53:38.553Z,17.92
2022-11-15T12:56:04.894Z,17.95
2022-11-15T12:58:31.477Z,18.26
2022-11-15T13:00:58.042Z,18.24
2022-11-15T13:03:24.408Z,18.11
2022-11-15T13:05:50.741Z,18.25
2022-11-15T13:08:17.069Z,18.11
2022-11-15T13:10:43.400Z,18.59
2022-11-15T13:13:09.744Z,18.28
2022-11-15T13:15:42.297Z,18.40
2022-11-15T13:18:09.328Z,18.73
2022-11-15T13:20:35.668Z,18.47
2022-11-15T13:23:02.017Z,18.39
2022-11-15T13:25:28.346Z,18.55
2022-11-15T13:27:54.690Z,18.41
2022-11-15T13:30:21.059Z,17.80
2022-11-15T13:32:47.419Z,17.68
2022-11-15T13:35:13.764Z,18.08
2022-11-15T13:37:40.103Z,18.08
2022-11-15T13:40:06.438Z,18.35
2022-11-15T13:42:32.781Z,18.45
2022-11-15T13:44:59.136Z,18.41
2022-11-15T13:47:25.478Z,18.34
2022-11-15T13:49:51.824Z,18.25
2022-11-15T13:52:18.160Z,18.21
2022-11-15T13:54:44.508Z,17.96
2022-11-15T13:57:10.850Z,17.95
2022-11-15T13:59:37.191Z,18.04
2022-11-15T14:02:03.681Z,18.21
2022-11-15T14:04:30.104Z,18.41
2022-11-15T14:06:56.487Z,18.52
2022-11-15T14:09:22.889Z,18.56
2022-11-15T14:11:49.265Z,18.56
2022-11-15T14:14:15.601Z,18.22
2022-11-15T14:16:41.941Z,18.17
2022-11-15T14:19:08.292Z,18.06
2022-11-15T14:21:34.635Z,18.13
2022-11-15T14:24:00.969Z,17.84
2022-11-15T14:26:27.308Z,17.95
2022-11-15T14:28:53.638Z,18.08
2022-11-15T14:31:19.971Z,17.74
2022-11-15T14:33:46.320Z,17.68
2022-11-15T14:36:12.658Z,17.92
2022-11-15T14:38:38.983Z,17.47
2022-11-15T14:41:05.322Z,17.59
2022-11-15T14:43:31.678Z,18.03
2022-11-15T14:45:58.004Z,17.92
2022-11-15T14:48:24.352Z,17.94
2022-11-15T14:50:50.691Z,17.88
2022-11-15T14:53:17.037Z,18.02
2022-11-15T14:55:43.375Z,18.08
2022-11-15T14:58:09.716Z,18.14
2022-11-15T15:00:36.078Z,18.17
2022-11-15T15:03:02.419Z,17.77
2022-11-15T15:05:28.756Z,18.08
2022-11-15T15:07:55.210Z,17.67
2022-11-15T15:13:07.912Z,17.43
2022-11-15T15:15:34.250Z,17.82
2022-11-15T15:18:00.583Z,17.71
2022-11-15T15:20:26.933Z,17.65
2022-11-15T15:22:53.330Z,17.88
2022-11-15T15:25:19.663Z,17.56
2022-11-15T15:27:46.028Z,17.75
2022-11-15T15:30:12.367Z,17.57
2022-11-15T15:32:38.762Z,17.81
2022-11-15T15:35:05.141Z,17.83
2022-11-15T15:37:31.477Z,17.26
2022-11-15T15:39:57.843Z,17.70
2022-11-15T15:42:24.192Z,17.62
2022-11-15T15:44:50.526Z,17.47
2022-11-15T15:47:16.880Z,17.35
2022-11-15T15:49:43.218Z,17.06
2022-11-15T15:52:09.596Z,16.75
2022-11-15T15:54:35.929Z,16.68
2022-11-15T15:57:02.272Z,16.81
2022-11-15T15:59:28.699Z,16.49
2022-11-15T16:01:55.049Z,16.66
2022-11-15T16:04:21.396Z,16.71
2022-11-15T16:06:47.802Z,16.48
2022-11-15T16:09:16.210Z,16.45
2022-11-15T16:11:42.891Z,16.54
2022-11-15T16:14:09.241Z,16.17
2022-11-15T16:16:35.578Z,16.25
2022-11-15T16:19:01.936Z,15.83
2022-11-15T16:21:28.701Z,16.07
2022-11-15T16:23:55.067Z,16.16
2022-11-15T16:26:21.420Z,15.86
2022-11-15T16:28:47.756Z,16.24
2022-11-15T16:31:14.094Z,16.13
2022-11-15T16:33:40.451Z,16.08
2022-11-15T16:36:06.789Z,16.18
2022-11-15T16:38:33.327Z,16.37
2022-11-15T16:40:59.787Z,16.20
2022-11-15T16:43:26.169Z,16.31
2022-11-15T16:45:52.533Z,16.33
2022-11-15T16:48:18.874Z,16.10
2022-11-15T16:50:45.234Z,16.34
2022-11-15T16:53:11.589Z,16.20
2022-11-15T16:55:37.938Z,16.21
2022-11-15T16:58:04.311Z,15.99
2022-11-15T17:00:30.690Z,16.16
2022-11-15T17:02:57.043Z,16.16
2022-11-15T17:05:23.397Z,16.55
2022-11-15T17:07:49.729Z,16.41
2022-11-15T17:10:16.073Z,16.39
2022-11-15T17:12:42.413Z,16.32
2022-11-15T17:15:08.746Z,16.23
2022-11-15T17:17:35.085Z,16.06
2022-11-15T17:20:01.418Z,16.29
2022-11-15T17:22:27.772Z,15.96
2022-11-15T17:24:54.109Z,16.28
2022-11-15T17:27:20.439Z,16.30
2022-11-15T17:29:46.795Z,15.93
2022-11-15T17:32:13.136Z,15.76
2022-11-15T17:34:39.475Z,15.73
2022-11-15T17:37:05.811Z,16.06
2022-11-15T17:39:32.138Z,16.26
2022-11-15T17:41:58.503Z,16.42
2022-11-15T17:44:24.848Z,16.38
2022-11-15T17:46:51.174Z,16.48
2022-11-15T17:49:17.520Z,16.41
2022-11-15T17:51:48.709Z,16.71
2022-11-15T17:54:16.243Z,16.87
2022-11-15T17:56:42.581Z,16.67
2022-11-15T17:59:13.758Z,16.72
2022-11-15T18:01:42.369Z,16.47
2022-11-15T18:04:08.699Z,16.13
2022-11-15T18:06:35.035Z,16.65
2022-11-15T18:09:01.371Z,16.65
2022-11-15T18:11:27.747Z,16.84
2022-11-15T18:13:54.080Z,16.69
2022-11-15T18:16:20.433Z,16.81
2022-11-15T18:18:46.780Z,16.71
2022-11-15T18:21:13.127Z,16.65
2022-11-15T18:23:39.490Z,16.44
2022-11-15T18:26:05.863Z,16.54
2022-11-15T18:28:32.422Z,16.69
2022-11-15T18:30:58.967Z,16.86
2022-11-15T18:33:25.340Z,17.11
2022-11-15T18:35:51.733Z,16.71
2022-11-15T18:38:18.072Z,16.68
2022-11-15T18:40:44.408Z,17.01
2022-11-15T18:43:10.741Z,16.97
2022-11-15T18:45:37.088Z,17.20
2022-11-15T18:48:03.440Z,17.00
2022-11-15T18:50:29.780Z,17.19
2022-11-15T18:52:56.127Z,17.04
2022-11-15T18:55:23.594Z,17.00
2022-11-15T18:57:49.964Z,17.08
2022-11-15T19:00:16.320Z,17.29
2022-11-15T19:02:42.664Z,17.44
2022-11-15T19:05:09.004Z,17.41
2022-11-15T19:07:35.382Z,17.36
2022-11-15T19:10:01.747Z,17.54
2022-11-15T19:12:28.085Z,17.46
2022-11-15T19:14:54.446Z,17.56
2022-11-15T19:17:20.803Z,17.62
2022-11-15T19:19:47.158Z,17.48
2022-11-15T19:22:13.536Z,17.48
2022-11-15T19:24:39.896Z,17.41
2022-11-15T19:27:06.229Z,17.57
2022-11-15T19:29:32.580Z,17.60
2022-11-15T19:31:58.954Z,17.63
2022-11-15T19:34:25.287Z,17.44
2022-11-15T19:36:51.729Z,17.50
2022-11-15T19:39:18.293Z,17.45
2022-11-15T19:41:44.638Z,17.52
2022-11-15T19:44:11.055Z,17.46
2022-11-15T19:46:37.445Z,17.60
2022-11-15T19:49:03.810Z,17.67
2022-11-15T19:51:30.154Z,17.57
2022-11-15T19:53:56.490Z,17.61
2022-11-15T19:56:22.854Z,17.64
2022-11-15T19:58:49.213Z,17.38
2022-11-15T20:01:15.711Z,17.21
2022-11-15T20:03:42.143Z,17.41
2022-11-15T20:06:08.553Z,17.54
2022-11-15T20:08:35.305Z,17.39
2022-11-15T20:11:02.006Z,17.41
2022-11-15T20:13:28.365Z,17.27
2022-11-15T20:15:54.718Z,17.34
2022-11-15T20:18:21.058Z,17.19
2022-11-15T20:20:47.400Z,16.91
2022-11-15T20:23:14.063Z,16.84
2022-11-15T20:25:40.496Z,16.64
2022-11-15T20:28:06.875Z,17.31
2022-11-15T20:30:33.271Z,17.26
2022-11-15T20:32:59.703Z,17.28
2022-11-15T20:35:26.166Z,17.34
2022-11-15T20:37:52.508Z,17.28
2022-11-15T20:40:18.961Z,17.37
2022-11-15T20:42:45.304Z,17.43
2022-11-15T20:45:11.665Z,17.13
2022-11-15T20:47:38.011Z,17.07
2022-11-15T20:50:27.576Z,17.20
2022-11-15T20:52:50.686Z,17.44
2022-11-15T20:55:17.049Z,17.53
2022-11-15T20:57:43.402Z,17.42
2022-11-15T21:00:09.760Z,17.47
2022-11-15T21:02:36.178Z,17.57
2022-11-15T21:05:02.564Z,17.51
2022-11-15T21:07:29.182Z,17.41
2022-11-15T21:09:55.540Z,17.25
2022-11-15T21:12:21.891Z,17.41
2022-11-15T21:14:48.227Z,17.48
2022-11-15T21:17:14.590Z,17.26
2022-11-15T21:19:40.923Z,17.35
2022-11-15T21:22:07.281Z,17.35
2022-11-15T21:24:33.637Z,17.28
2022-11-15T21:26:59.972Z,17.31
2022-11-15T21:29:26.314Z,17.27
2022-11-15T21:31:52.658Z,17.31
2022-11-15T21:34:19.005Z,17.25
2022-11-15T21:36:45.341Z,17.34
2022-11-15T21:39:11.677Z,17.34
2022-11-15T21:41:38.019Z,17.29
2022-11-15T21:44:04.351Z,17.27
2022-11-15T21:46:30.701Z,17.04
2022-11-15T21:48:57.044Z,16.88
2022-11-15T21:51:23.380Z,17.23
2022-11-15T21:53:49.716Z,17.10
2022-11-15T21:56:16.048Z,17.12
2022-11-15T21:58:42.394Z,17.15
2022-11-15T22:01:08.814Z,16.99
2022-11-15T22:03:35.187Z,17.21
2022-11-15T22:06:01.538Z,16.90
2022-11-15T22:08:27.880Z,16.87
2022-11-15T22:10:54.230Z,16.84
2022-11-15T22:13:20.562Z,16.78
2022-11-15T22:15:46.909Z,16.70
2022-11-15T22:18:13.265Z,16.93
2022-11-15T22:20:46.723Z,16.87
2022-11-15T22:23:13.069Z,16.56
2022-11-15T22:25:39.424Z,16.63
2022-11-15T22:28:05.753Z,16.79
2022-11-15T22:30:32.106Z,17.07
2022-11-15T22:32:58.458Z,16.97
2022-11-15T22:35:24.787Z,16.99
2022-11-15T22:37:51.128Z,17.15
2022-11-15T22:40:17.467Z,16.97
2022-11-15T22:42:43.803Z,16.75
2022-11-15T22:45:10.150Z,17.19
2022-11-15T22:47:36.497Z,16.95
2022-11-15T22:50:02.847Z,17.09
2022-11-15T22:52:29.203Z,16.90
2022-11-15T22:54:55.544Z,16.62
2022-11-15T22:57:21.907Z,16.64
2022-11-15T22:59:48.235Z,16.49
2022-11-15T23:02:14.594Z,16.71
2022-11-15T23:04:40.956Z,17.02
2022-11-15T23:07:07.356Z,16.61
2022-11-15T23:09:33.764Z,16.62
2022-11-15T23:12:00.107Z,16.55
2022-11-15T23:14:26.435Z,16.40
2022-11-15T23:16:52.772Z,16.61
2022-11-15T23:19:19.113Z,16.25
2022-11-15T23:21:46.155Z,16.46
2022-11-15T23:24:12.491Z,16.49
2022-11-15T23:26:38.830Z,16.68
2022-11-15T23:29:05.169Z,16.51
2022-11-15T23:31:31.511Z,16.17
2022-11-15T23:33:57.851Z,16.13
2022-11-15T23:36:24.179Z,16.22
2022-11-15T23:38:50.514Z,15.79
2022-11-15T23:41:16.859Z,15.12
2022-11-15T23:43:43.228Z,15.04
2022-11-15T23:46:09.559Z,14.87
2022-11-15T23:48:35.992Z,15.22
2022-11-15T23:51:02.492Z,15.37
2022-11-15T23:53:28.844Z,15.42
2022-11-15T23:55:55.185Z,15.15
2022-11-15T23:58:21.510Z,15.17
